createdAt,value
2019-06-10T00:01:35.150Z,16.90
2019-06-10T00:04:05.125Z,17.00
2019-06-10T00:06:31.751Z,17.00
2019-06-10T00:09:03.126Z,16.80
2019-06-10T00:11:28.285Z,16.60
2019-06-10T00:13:56.613Z,16.70
2019-06-10T00:16:24.011Z,16.70
2019-06-10T00:18:51.346Z,16.80
2019-06-10T00:21:18.762Z,16.60
2019-06-10T00:23:46.116Z,16.50
2019-06-10T00:26:13.454Z,16.60
2019-06-10T00:28:40.893Z,16.60
2019-06-10T00:31:08.645Z,16.60
2019-06-10T00:33:36.091Z,16.60
2019-06-10T00:36:05.846Z,16.50
2019-06-10T00:38:32.651Z,16.60
2019-06-10T00:41:02.298Z,16.60
2019-06-10T00:43:30.622Z,16.50
2019-06-10T00:45:58.352Z,16.50
2019-06-10T00:48:29.174Z,16.50
2019-06-10T00:50:54.905Z,16.50
2019-06-10T00:53:22.182Z,16.50
2019-06-10T00:55:51.624Z,16.50
2019-06-10T00:58:21.459Z,16.60
2019-06-10T01:00:47.901Z,16.50
2019-06-10T01:03:15.410Z,16.50
2019-06-10T01:05:42.802Z,16.40
2019-06-10T01:08:14.579Z,16.60
2019-06-10T01:10:43.243Z,16.70
2019-06-10T01:13:11.296Z,16.60
2019-06-10T01:15:38.050Z,16.60
2019-06-10T01:18:05.598Z,16.50
2019-06-10T01:20:33.022Z,16.70
2019-06-10T01:23:01.539Z,16.70
2019-06-10T01:25:30.996Z,16.80
2019-06-10T01:28:00.501Z,16.90
2019-06-10T01:30:27.570Z,17.00
2019-06-10T01:32:55.337Z,16.80
2019-06-10T01:35:22.552Z,16.70
2019-06-10T01:37:51.873Z,16.50
2019-06-10T01:40:20.916Z,16.50
2019-06-10T01:42:50.501Z,16.70
2019-06-10T01:45:17.533Z,16.80
2019-06-10T01:47:44.829Z,16.70
2019-06-10T01:50:15.631Z,16.60
2019-06-10T01:52:41.517Z,16.60
2019-06-10T01:55:11.854Z,16.70
2019-06-10T01:57:38.357Z,16.90
2019-06-10T02:00:10.967Z,16.80
2019-06-10T02:02:35.982Z,16.80
2019-06-10T02:05:03.834Z,16.80
2019-06-10T02:07:32.002Z,16.90
2019-06-10T02:10:01.114Z,16.90
2019-06-10T02:12:31.319Z,16.90
2019-06-10T02:14:57.921Z,16.90
2019-06-10T02:17:25.213Z,16.90
2019-06-10T02:19:52.531Z,16.80
2019-06-10T02:22:23.933Z,16.80
2019-06-10T02:24:50.650Z,16.80
2019-06-10T02:27:19.530Z,16.70
2019-06-10T02:29:47.706Z,16.60
2019-06-10T02:32:22.519Z,16.60
2019-06-10T02:35:01.353Z,16.50
2019-06-10T02:37:17.266Z,16.50
2019-06-10T02:39:44.000Z,16.50
2019-06-10T02:42:28.880Z,16.40
2019-06-10T02:44:53.884Z,16.40
2019-06-10T02:47:23.789Z,16.50
2019-06-10T02:49:59.096Z,16.70
2019-06-10T02:52:22.681Z,16.60
2019-06-10T02:54:47.633Z,16.60
2019-06-10T02:57:18.026Z,16.50
2019-06-10T02:59:44.537Z,16.60
2019-06-10T03:02:13.509Z,16.50
2019-06-10T03:04:43.273Z,16.40
2019-06-10T03:07:13.608Z,16.50
2019-06-10T03:09:42.575Z,16.50
2019-06-10T03:12:08.994Z,16.60
2019-06-10T03:14:36.306Z,16.70
2019-06-10T03:17:07.009Z,16.70
2019-06-10T03:19:46.900Z,16.70
2019-06-10T03:22:03.529Z,16.80
2019-06-10T03:24:32.797Z,16.70
2019-06-10T03:27:02.531Z,16.80
2019-06-10T03:29:29.346Z,16.70
2019-06-10T03:31:56.848Z,16.60
2019-06-10T03:34:33.477Z,16.60
2019-06-10T03:36:53.665Z,16.70
2019-06-10T03:39:23.399Z,16.60
2019-06-10T03:41:50.197Z,16.60
2019-06-10T03:44:17.809Z,16.60
2019-06-10T03:46:46.155Z,16.70
2019-06-10T03:49:13.453Z,16.70
2019-06-10T03:51:42.791Z,16.50
2019-06-10T03:54:10.110Z,16.50
2019-06-10T03:56:37.395Z,16.60
2019-06-10T03:59:04.718Z,16.80
2019-06-10T04:01:33.337Z,16.80
2019-06-10T04:04:02.313Z,16.90
2019-06-10T04:06:33.348Z,16.80
2019-06-10T04:08:59.226Z,16.90
2019-06-10T04:11:27.371Z,16.80
2019-06-10T04:13:55.642Z,16.70
2019-06-10T04:16:25.136Z,16.80
2019-06-10T04:18:53.400Z,16.70
2019-06-10T04:21:22.731Z,16.80
2019-06-10T04:23:52.654Z,16.80
2019-06-10T04:26:19.766Z,16.70
2019-06-10T04:28:47.325Z,16.80
2019-06-10T04:31:14.662Z,16.80
2019-06-10T04:33:42.251Z,16.90
2019-06-10T04:36:09.872Z,16.80
2019-06-10T04:38:37.234Z,16.80
2019-06-10T04:41:04.801Z,17.10
2019-06-10T04:43:32.721Z,17.00
2019-06-10T04:46:02.373Z,17.10
2019-06-10T04:48:29.602Z,17.10
2019-06-10T04:50:56.952Z,17.20
2019-06-10T04:53:26.460Z,17.30
2019-06-10T04:55:53.572Z,17.40
2019-06-10T04:58:23.775Z,17.40
2019-06-10T05:00:52.185Z,17.40
2019-06-10T05:03:19.286Z,17.50
2019-06-10T05:05:46.674Z,17.50
2019-06-10T05:08:14.046Z,17.50
2019-06-10T05:10:42.408Z,17.40
2019-06-10T05:13:11.927Z,17.40
2019-06-10T05:15:39.156Z,17.40
2019-06-10T05:18:06.647Z,17.40
2019-06-10T05:20:51.203Z,17.50
2019-06-10T05:23:03.342Z,17.40
2019-06-10T05:25:32.751Z,17.50
2019-06-10T05:27:59.994Z,17.50
2019-06-10T05:30:28.197Z,17.50
2019-06-10T05:32:56.965Z,17.30
2019-06-10T05:35:26.586Z,17.30
2019-06-10T05:37:53.466Z,17.20
2019-06-10T05:40:23.400Z,17.10
2019-06-10T05:42:50.132Z,17.20
2019-06-10T05:45:17.425Z,17.40
2019-06-10T05:47:44.796Z,17.50
2019-06-10T05:50:13.034Z,17.50
2019-06-10T05:52:42.540Z,17.30
2019-06-10T05:55:11.986Z,17.30
2019-06-10T05:57:38.932Z,17.30
2019-06-10T06:00:13.846Z,17.30
2019-06-10T06:02:36.816Z,17.50
2019-06-10T06:05:05.113Z,17.70
2019-06-10T06:07:34.328Z,17.70
2019-06-10T06:10:02.458Z,17.60
2019-06-10T06:12:29.926Z,17.50
2019-06-10T06:14:57.214Z,17.20
2019-06-10T06:17:25.791Z,17.20
2019-06-10T06:19:53.586Z,17.30
2019-06-10T06:22:22.098Z,17.20
2019-06-10T06:24:52.083Z,17.20
2019-06-10T06:27:18.842Z,17.40
2019-06-10T06:29:46.165Z,17.30
2019-06-10T06:32:13.576Z,17.20
2019-06-10T06:34:43.003Z,17.30
2019-06-10T06:37:12.617Z,17.30
2019-06-10T06:39:39.711Z,17.50
2019-06-10T06:42:07.068Z,17.40
2019-06-10T06:44:37.332Z,17.50
2019-06-10T06:47:03.679Z,17.60
2019-06-10T06:49:32.850Z,17.60
2019-06-10T06:52:02.772Z,17.60
2019-06-10T06:54:30.494Z,17.40
2019-06-10T06:56:57.957Z,17.40
2019-06-10T06:59:25.708Z,17.30
2019-06-10T07:01:53.093Z,17.30
2019-06-10T07:04:20.428Z,17.40
2019-06-10T07:06:48.647Z,17.40
2019-06-10T07:09:17.191Z,17.20
2019-06-10T07:11:45.816Z,17.10
2019-06-10T07:14:13.579Z,16.90
2019-06-10T07:16:45.848Z,16.90
2019-06-10T07:19:10.319Z,17.30
2019-06-10T07:21:58.393Z,17.50
2019-06-10T07:24:06.863Z,17.60
2019-06-10T07:26:38.780Z,17.90
2019-06-10T07:29:03.524Z,17.90
2019-06-10T07:31:33.586Z,18.00
2019-06-10T07:34:02.451Z,17.90
2019-06-10T07:36:29.666Z,17.90
2019-06-10T07:38:57.086Z,17.90
2019-06-10T07:41:24.511Z,18.00
2019-06-10T07:43:52.773Z,17.80
2019-06-10T07:46:22.793Z,17.90
2019-06-10T07:48:53.534Z,18.00
2019-06-10T07:51:19.121Z,17.90
2019-06-10T07:53:46.936Z,18.00
2019-06-10T07:56:14.475Z,18.00
2019-06-10T07:58:46.971Z,18.10
2019-06-10T08:01:13.183Z,18.10
2019-06-10T08:03:42.530Z,18.20
2019-06-10T08:06:12.640Z,18.10
2019-06-10T08:08:42.293Z,17.90
2019-06-10T08:11:09.250Z,18.00
2019-06-10T08:13:37.260Z,18.20
2019-06-10T08:16:04.948Z,18.40
2019-06-10T08:18:39.856Z,18.60
2019-06-10T08:21:03.225Z,18.60
2019-06-10T08:23:32.879Z,18.60
2019-06-10T08:26:00.067Z,18.70
2019-06-10T08:28:27.498Z,18.70
2019-06-10T08:30:55.351Z,18.60
2019-06-10T08:33:22.976Z,18.70
2019-06-10T08:35:57.302Z,18.90
2019-06-10T08:38:19.914Z,19.00
2019-06-10T08:40:48.543Z,19.00
2019-06-10T08:43:16.147Z,19.10
2019-06-10T08:45:45.249Z,19.20
2019-06-10T08:48:13.303Z,19.30
2019-06-10T08:50:43.747Z,19.40
2019-06-10T08:53:15.610Z,19.80
2019-06-10T08:55:42.841Z,20.10
2019-06-10T08:58:09.465Z,20.30
2019-06-10T09:00:37.595Z,20.40
2019-06-10T09:03:06.344Z,20.40
2019-06-10T09:05:33.806Z,20.50
2019-06-10T09:08:02.844Z,20.40
2019-06-10T09:10:31.451Z,20.80
2019-06-10T09:12:59.822Z,20.70
2019-06-10T09:15:27.220Z,20.80
2019-06-10T09:17:56.182Z,21.10
2019-06-10T09:20:24.309Z,21.00
2019-06-10T09:23:13.259Z,21.00
2019-06-10T09:25:22.584Z,21.10
2019-06-10T09:27:54.178Z,21.30
2019-06-10T09:30:22.568Z,21.70
2019-06-10T09:32:52.938Z,22.00
2019-06-10T09:35:19.076Z,22.40
2019-06-10T09:37:49.964Z,22.50
2019-06-10T09:40:18.376Z,22.60
2019-06-10T09:42:49.331Z,22.60
2019-06-10T09:45:17.135Z,22.80
2019-06-10T09:47:47.347Z,23.00
2019-06-10T09:50:14.921Z,23.20
2019-06-10T09:52:47.548Z,23.10
2019-06-10T09:55:12.876Z,23.30
2019-06-10T09:57:43.359Z,23.30
2019-06-10T10:00:12.608Z,23.70
2019-06-10T10:02:44.961Z,24.00
2019-06-10T10:05:11.454Z,24.40
2019-06-10T10:07:39.201Z,24.70
2019-06-10T10:10:08.335Z,24.70
2019-06-10T10:12:35.772Z,24.90
2019-06-10T10:15:22.621Z,25.10
2019-06-10T10:17:33.988Z,25.10
2019-06-10T10:20:03.216Z,25.20
2019-06-10T10:22:33.334Z,25.10
2019-06-10T10:25:02.810Z,25.00
2019-06-10T10:27:32.184Z,24.50
2019-06-10T10:29:59.342Z,24.70
2019-06-10T10:32:27.907Z,25.00
2019-06-10T10:34:56.432Z,25.30
2019-06-10T10:37:24.065Z,25.50
2019-06-10T10:39:54.455Z,25.70
2019-06-10T10:42:23.459Z,25.80
2019-06-10T10:44:53.008Z,25.90
2019-06-10T10:47:19.276Z,25.30
2019-06-10T10:49:47.084Z,25.00
2019-06-10T10:52:14.564Z,25.10
2019-06-10T10:54:43.204Z,25.40
2019-06-10T10:57:13.174Z,26.00
2019-06-10T10:59:43.128Z,26.50
2019-06-10T11:02:09.922Z,26.80
2019-06-10T11:04:44.151Z,27.00
2019-06-10T11:07:12.961Z,27.30
2019-06-10T11:09:42.443Z,27.50
2019-06-10T11:12:11.265Z,27.20
2019-06-10T11:14:39.553Z,26.90
2019-06-10T11:17:07.025Z,26.90
2019-06-10T11:19:34.527Z,27.20
2019-06-10T11:22:02.937Z,27.30
2019-06-10T11:24:37.829Z,27.30
2019-06-10T11:27:00.016Z,27.30
2019-06-10T11:29:28.090Z,27.20
2019-06-10T11:31:58.441Z,26.90
2019-06-10T11:34:24.993Z,26.70
2019-06-10T11:36:55.043Z,26.50
2019-06-10T11:39:22.552Z,26.30
2019-06-10T11:41:52.853Z,25.90
2019-06-10T11:44:22.358Z,25.40
2019-06-10T11:46:51.842Z,24.90
2019-06-10T11:49:19.191Z,24.50
2019-06-10T11:51:47.154Z,24.10
2019-06-10T11:54:14.709Z,23.30
2019-06-10T11:56:42.517Z,22.90
2019-06-10T11:59:10.247Z,22.80
2019-06-10T12:01:39.272Z,22.90
2019-06-10T12:04:06.762Z,22.90
2019-06-10T12:06:34.653Z,23.20
2019-06-10T12:09:03.110Z,23.40
2019-06-10T12:11:31.906Z,23.70
2019-06-10T12:14:03.917Z,23.90
2019-06-10T12:17:15.709Z,24.50
2019-06-10T12:19:03.410Z,25.00
2019-06-10T12:21:29.563Z,26.90
2019-06-10T12:24:00.859Z,30.20
2019-06-10T12:26:26.673Z,32.50
2019-06-10T12:28:58.460Z,32.90
2019-06-10T12:31:24.625Z,31.80
2019-06-10T12:33:55.310Z,30.30
2019-06-10T12:36:23.799Z,29.10
2019-06-10T12:38:55.796Z,27.90
2019-06-10T12:41:23.239Z,26.50
2019-06-10T12:43:50.448Z,25.30
2019-06-10T12:46:17.942Z,25.00
2019-06-10T12:48:45.822Z,24.70
2019-06-10T12:51:13.785Z,24.70
2019-06-10T12:53:43.326Z,24.90
2019-06-10T12:56:14.599Z,25.00
2019-06-10T12:58:42.905Z,25.00
2019-06-10T13:01:10.067Z,24.80
2019-06-10T13:03:37.519Z,24.70
2019-06-10T13:06:07.516Z,24.70
2019-06-10T13:08:35.367Z,24.60
2019-06-10T13:11:04.122Z,24.40
2019-06-10T13:13:32.851Z,24.30
2019-06-10T13:16:04.256Z,24.20
2019-06-10T13:18:29.887Z,24.30
2019-06-10T13:21:01.955Z,24.40
2019-06-10T13:23:31.846Z,24.60
2019-06-10T13:26:00.180Z,24.90
2019-06-10T13:28:26.022Z,25.10
2019-06-10T13:30:54.687Z,25.50
2019-06-10T13:33:23.167Z,25.70
2019-06-10T13:35:53.535Z,25.30
2019-06-10T13:38:25.420Z,25.10
2019-06-10T13:40:49.658Z,24.70
2019-06-10T13:43:17.156Z,24.30
2019-06-10T13:45:44.640Z,24.10
2019-06-10T13:48:14.807Z,23.80
2019-06-10T13:50:42.335Z,23.50
2019-06-10T13:53:12.648Z,23.00
2019-06-10T13:55:39.775Z,22.60
2019-06-10T13:58:09.547Z,22.30
2019-06-10T14:00:42.766Z,22.00
2019-06-10T14:03:09.546Z,21.60
2019-06-10T14:05:36.598Z,21.30
2019-06-10T14:08:06.857Z,20.90
2019-06-10T14:10:33.769Z,20.60
2019-06-10T14:13:03.507Z,20.50
2019-06-10T14:15:32.750Z,20.50
2019-06-10T14:18:01.157Z,20.50
2019-06-10T14:20:29.211Z,20.60
2019-06-10T14:22:56.727Z,20.70
2019-06-10T14:25:24.250Z,20.90
2019-06-10T14:27:53.183Z,21.10
2019-06-10T14:30:23.009Z,21.10
2019-06-10T14:32:52.909Z,21.00
2019-06-10T14:35:22.479Z,21.10
2019-06-10T14:37:50.053Z,21.10
2019-06-10T14:40:20.829Z,20.90
2019-06-10T14:42:47.476Z,20.90
2019-06-10T14:45:16.632Z,20.90
2019-06-10T14:47:44.425Z,20.80
2019-06-10T14:50:14.337Z,20.70
2019-06-10T14:52:43.217Z,20.70
2019-06-10T14:55:11.875Z,20.60
2019-06-10T14:57:42.479Z,20.60
2019-06-10T15:00:09.908Z,20.70
2019-06-10T15:02:37.383Z,20.80
2019-06-10T15:05:06.997Z,20.90
2019-06-10T15:07:34.695Z,20.80
2019-06-10T15:10:03.418Z,20.80
2019-06-10T15:12:32.690Z,20.80
2019-06-10T15:15:00.336Z,20.70
2019-06-10T15:17:28.295Z,20.70
2019-06-10T15:19:55.728Z,20.70
2019-06-10T15:22:23.735Z,20.60
2019-06-10T15:24:53.268Z,20.40
2019-06-10T15:27:27.580Z,20.50
2019-06-10T15:29:52.415Z,20.40
2019-06-10T15:32:32.655Z,20.40
2019-06-10T15:34:48.802Z,20.40
2019-06-10T15:37:18.593Z,20.60
2019-06-10T15:39:46.014Z,20.70
2019-06-10T15:42:13.891Z,20.70
2019-06-10T15:44:51.881Z,20.70
2019-06-10T15:47:13.879Z,20.70
2019-06-10T15:49:39.971Z,20.80
2019-06-10T15:52:07.466Z,20.70
2019-06-10T15:54:36.240Z,20.70
2019-06-10T15:57:04.043Z,20.70
2019-06-10T15:59:31.599Z,20.50
2019-06-10T16:01:59.526Z,20.40
2019-06-10T16:04:29.876Z,20.30
2019-06-10T16:06:57.256Z,20.30
2019-06-10T16:09:25.518Z,20.40
2019-06-10T16:11:54.000Z,20.50
2019-06-10T16:14:25.208Z,20.20
2019-06-10T16:16:52.600Z,20.00
2019-06-10T16:19:21.273Z,20.20
2019-06-10T16:21:52.416Z,20.30
2019-06-10T16:24:21.084Z,20.30
2019-06-10T16:26:48.910Z,20.30
2019-06-10T16:29:17.066Z,20.40
2019-06-10T16:31:44.833Z,20.50
2019-06-10T16:34:12.847Z,20.30
2019-06-10T16:36:42.615Z,20.30
2019-06-10T16:39:12.365Z,20.40
2019-06-10T16:41:39.814Z,20.40
2019-06-10T16:44:07.694Z,20.30
2019-06-10T16:46:35.615Z,20.40
2019-06-10T16:49:03.641Z,20.50
2019-06-10T16:51:31.260Z,20.60
2019-06-10T16:53:58.874Z,20.60
2019-06-10T16:56:27.850Z,20.40
2019-06-10T16:58:55.692Z,20.30
2019-06-10T17:01:26.613Z,19.90
2019-06-10T17:03:53.782Z,19.70
2019-06-10T17:06:22.425Z,19.70
2019-06-10T17:08:52.239Z,19.80
2019-06-10T17:11:21.393Z,19.90
2019-06-10T17:13:49.961Z,20.10
2019-06-10T17:16:18.232Z,20.00
2019-06-10T17:18:46.018Z,20.00
2019-06-10T17:21:13.826Z,20.00
2019-06-10T17:23:43.419Z,19.90
2019-06-10T17:26:11.376Z,19.90
2019-06-10T17:28:39.242Z,19.90
2019-06-10T17:31:07.393Z,19.90
2019-06-10T17:33:35.965Z,20.00
2019-06-10T17:36:04.237Z,20.30
2019-06-10T17:38:32.191Z,20.30
2019-06-10T17:41:02.706Z,20.30
2019-06-10T17:43:32.686Z,20.30
2019-06-10T17:45:59.568Z,20.30
2019-06-10T17:48:27.991Z,20.30
2019-06-10T17:50:57.172Z,20.40
2019-06-10T17:53:26.069Z,20.40
2019-06-10T17:55:53.871Z,20.60
2019-06-10T17:58:33.362Z,20.60
2019-06-10T18:00:53.071Z,20.60
2019-06-10T18:03:23.156Z,20.50
2019-06-10T18:05:53.069Z,20.50
2019-06-10T18:08:22.357Z,20.50
2019-06-10T18:10:49.646Z,20.30
2019-06-10T18:13:17.195Z,20.20
2019-06-10T18:15:44.764Z,20.20
2019-06-10T18:18:13.006Z,20.00
2019-06-10T18:20:43.228Z,20.10
2019-06-10T18:23:13.266Z,20.10
2019-06-10T18:25:40.439Z,20.00
2019-06-10T18:28:08.102Z,19.90
2019-06-10T18:30:37.669Z,19.90
2019-06-10T18:33:05.699Z,19.90
2019-06-10T18:35:34.785Z,19.80
2019-06-10T18:38:02.536Z,19.70
2019-06-10T18:40:30.115Z,20.00
2019-06-10T18:42:57.648Z,20.10
2019-06-10T18:45:25.262Z,20.00
2019-06-10T18:47:53.119Z,19.90
2019-06-10T18:50:22.117Z,19.90
2019-06-10T18:52:53.919Z,19.90
2019-06-10T18:55:22.822Z,20.00
2019-06-10T18:57:52.874Z,20.00
2019-06-10T19:00:22.844Z,20.10
2019-06-10T19:03:08.684Z,20.00
2019-06-10T19:05:22.407Z,19.90
2019-06-10T19:07:52.884Z,19.80
2019-06-10T19:10:23.053Z,19.70
2019-06-10T19:12:53.009Z,19.70
2019-06-10T19:15:21.076Z,19.70
2019-06-10T19:17:50.057Z,19.60
2019-06-10T19:20:19.168Z,19.60
2019-06-10T19:22:47.767Z,19.60
2019-06-10T19:25:16.875Z,19.60
2019-06-10T19:27:45.259Z,19.50
2019-06-10T19:30:13.994Z,19.50
2019-06-10T19:32:44.223Z,19.50
2019-06-10T19:35:13.147Z,19.60
2019-06-10T19:37:42.207Z,19.60
2019-06-10T19:40:12.453Z,19.60
2019-06-10T19:42:43.352Z,19.50
2019-06-10T19:45:12.530Z,19.50
2019-06-10T19:47:44.089Z,19.50
2019-06-10T19:50:12.330Z,19.50
2019-06-10T19:52:41.608Z,19.60
2019-06-10T19:55:09.580Z,19.60
2019-06-10T19:57:37.509Z,19.50
2019-06-10T20:00:11.825Z,19.40
2019-06-10T20:02:35.761Z,19.50
2019-06-10T20:05:04.737Z,19.50
2019-06-10T20:07:32.365Z,19.50
2019-06-10T20:09:59.960Z,19.50
2019-06-10T20:12:27.546Z,19.50
2019-06-10T20:14:56.926Z,19.50
2019-06-10T20:17:24.594Z,19.40
2019-06-10T20:19:52.074Z,19.40
2019-06-10T20:22:19.587Z,19.40
2019-06-10T20:24:47.010Z,19.40
2019-06-10T20:27:14.657Z,19.30
2019-06-10T20:29:42.996Z,19.30
2019-06-10T20:32:11.623Z,19.20
2019-06-10T20:34:39.376Z,19.20
2019-06-10T20:37:06.798Z,19.30
2019-06-10T20:39:34.257Z,19.30
2019-06-10T20:42:02.773Z,19.20
2019-06-10T20:44:32.589Z,19.20
2019-06-10T20:47:00.511Z,19.00
2019-06-10T20:49:28.003Z,18.80
2019-06-10T20:52:09.949Z,18.70
2019-06-10T20:54:25.073Z,18.50
2019-06-10T20:56:53.395Z,18.50
2019-06-10T20:59:25.482Z,18.70
2019-06-10T21:01:52.960Z,18.70
2019-06-10T21:04:20.226Z,18.70
2019-06-10T21:06:49.518Z,18.90
2019-06-10T21:09:17.038Z,19.00
2019-06-10T21:11:47.004Z,19.00
2019-06-10T21:14:13.744Z,18.90
2019-06-10T21:16:42.062Z,19.00
2019-06-10T21:19:09.672Z,19.00
2019-06-10T21:21:37.193Z,18.90
2019-06-10T21:24:04.636Z,18.90
2019-06-10T21:26:32.632Z,18.80
2019-06-10T21:29:00.184Z,18.80
2019-06-10T21:31:29.526Z,18.70
2019-06-10T21:33:56.918Z,18.70
2019-06-10T21:36:25.005Z,18.70
2019-06-10T21:38:55.665Z,18.80
2019-06-10T21:41:22.708Z,18.70
2019-06-10T21:43:57.598Z,19.00
2019-06-10T21:46:22.617Z,19.00
2019-06-10T21:48:50.571Z,18.90
2019-06-10T21:51:18.509Z,18.80
2019-06-10T21:53:46.566Z,18.80
2019-06-10T21:56:14.132Z,18.90
2019-06-10T21:58:42.322Z,18.90
2019-06-10T22:01:14.164Z,18.80
2019-06-10T22:03:40.457Z,18.90
2019-06-10T22:06:07.814Z,19.10
2019-06-10T22:08:35.304Z,19.30
2019-06-10T22:11:02.758Z,19.20
2019-06-10T22:13:32.725Z,19.10
2019-06-10T22:15:59.600Z,19.10
2019-06-10T22:18:27.006Z,19.20
2019-06-10T22:20:57.487Z,19.20
2019-06-10T22:23:23.607Z,19.10
2019-06-10T22:25:53.649Z,19.10
2019-06-10T22:28:22.194Z,19.10
2019-06-10T22:30:49.693Z,19.00
2019-06-10T22:33:17.107Z,19.00
2019-06-10T22:35:45.444Z,19.00
2019-06-10T22:38:13.218Z,18.90
2019-06-10T22:40:42.611Z,18.90
2019-06-10T22:43:12.781Z,18.90
2019-06-10T22:45:42.141Z,19.10
2019-06-10T22:48:08.898Z,19.00
2019-06-10T22:50:36.394Z,19.00
2019-06-10T22:53:04.143Z,19.20
2019-06-10T22:55:32.260Z,19.30
2019-06-10T22:58:03.229Z,19.40
2019-06-10T23:00:29.493Z,19.30
2019-06-10T23:02:58.005Z,19.20
2019-06-10T23:05:26.139Z,19.20
2019-06-10T23:07:55.700Z,19.20
2019-06-10T23:10:23.193Z,19.10
2019-06-10T23:12:53.361Z,19.10
2019-06-10T23:15:20.203Z,19.10
2019-06-10T23:17:48.888Z,19.10
2019-06-10T23:20:17.103Z,19.00
2019-06-10T23:22:44.467Z,18.90
2019-06-10T23:25:12.744Z,18.90
2019-06-10T23:27:43.747Z,18.90
2019-06-10T23:30:11.870Z,18.90
2019-06-10T23:32:39.012Z,18.90
2019-06-10T23:35:06.335Z,19.00
2019-06-10T23:37:33.780Z,18.90
2019-06-10T23:40:03.737Z,18.80
2019-06-10T23:42:32.190Z,18.70
2019-06-10T23:45:01.962Z,18.60
2019-06-10T23:47:29.470Z,18.60
2019-06-10T23:49:57.671Z,18.60
2019-06-10T23:52:25.310Z,18.80
2019-06-10T23:54:53.217Z,18.80
2019-06-10T23:57:22.319Z,18.70
2019-06-10T23:59:52.057Z,18.60
